Time;durP1;ratioP1;P1;durP2;ratioP2;P2;SDS_P1;SDS_P2;PMS_P1;PMS_P2;Temp;Humidity;BMP_temperature;BMP_pressure;BME280_temperature;BME280_humidity;BME280_pressure;Samples;Min_cycle;Max_cycle;Signal;HPM_P1;HPM_P2
2023/10/20 00:00:27;;;;;;;6.90;4.78;;;6.70;99.90;;;6.74;100.00;99029.13;5088055;28;20191;-68
2023/10/20 00:02:56;;;;;;;8.73;6.05;;;6.80;99.90;;;6.75;100.00;99025.41;5073861;28;20759;-66
2023/10/20 00:05:24;;;;;;;6.50;4.90;;;6.80;99.90;;;6.76;100.00;99011.75;5083989;28;21266;-68
2023/10/20 00:07:54;;;;;;;14.30;5.95;;;6.80;99.90;;;6.79;100.00;99015.84;5090180;28;20599;-68
2023/10/20 00:10:23;;;;;;;8.57;5.78;;;6.80;99.90;;;6.78;100.00;99030.31;5087481;28;20295;-67
2023/10/20 00:12:51;;;;;;;7.57;4.13;;;6.80;99.90;;;6.82;100.00;99026.16;5084839;28;20586;-69
2023/10/20 00:15:22;;;;;;;5.88;4.93;;;6.80;99.90;;;6.78;100.00;99030.31;5085768;28;20198;-65
2023/10/20 00:17:50;;;;;;;10.93;5.80;;;6.80;99.90;;;6.81;100.00;99021.81;5080061;28;20290;-66
2023/10/20 00:20:18;;;;;;;7.32;5.10;;;6.80;99.90;;;6.75;100.00;99014.66;5083517;28;20253;-68
2023/10/20 00:22:47;;;;;;;9.13;6.38;;;6.80;99.90;;;6.87;100.00;99020.94;5089229;28;20268;-68
2023/10/20 00:25:17;;;;;;;8.20;5.93;;;6.80;99.90;;;6.78;100.00;99024.94;5086666;28;20202;-68
2023/10/20 00:27:46;;;;;;;7.78;4.88;;;6.80;99.90;;;6.84;100.00;99018.69;5080751;28;20194;-66
2023/10/20 00:30:14;;;;;;;7.47;6.28;;;6.80;99.90;;;6.80;100.00;99012.09;5086996;28;20203;-67
2023/10/20 00:32:45;;;;;;;4.68;3.67;;;6.80;99.90;;;6.78;100.00;99004.25;5077062;28;20211;-67
2023/10/20 00:35:14;;;;;;;15.05;5.40;;;6.80;99.90;;;6.80;100.00;99012.09;5089471;28;20192;-70
2023/10/20 00:37:43;;;;;;;4.60;3.38;;;6.80;99.90;;;6.82;100.00;99008.16;5083099;28;20217;-67
2023/10/20 00:40:13;;;;;;;9.10;5.60;;;6.80;99.90;;;6.76;100.00;99005.53;5086086;28;20189;-65
2023/10/20 00:42:43;;;;;;;6.25;5.05;;;6.80;99.90;;;6.83;100.00;99003.59;5069351;28;20253;-69
2023/10/20 00:45:12;;;;;;;7.57;5.13;;;6.80;99.90;;;6.74;100.00;98996.88;5082723;28;20198;-67
2023/10/20 00:47:41;;;;;;;7.25;4.75;;;6.80;99.90;;;6.72;100.00;99001.66;5068121;28;20291;-69
2023/10/20 00:50:11;;;;;;;6.18;4.10;;;6.80;99.90;;;6.76;100.00;99001.00;5069396;28;20268;-68
2023/10/20 00:52:44;;;;;;;7.03;5.28;;;6.80;99.90;;;6.81;100.00;98992.25;5091082;28;21405;-67
2023/10/20 00:55:15;;;;;;;12.43;5.10;;;6.80;99.90;;;6.78;100.00;98985.44;5066379;28;20184;-67
2023/10/20 00:57:46;;;;;;;8.25;4.53;;;6.80;99.90;;;6.83;100.00;98982.06;5090382;28;20195;-68
2023/10/20 01:00:16;;;;;;;8.35;6.38;;;6.80;99.90;;;6.82;100.00;98972.41;5060205;28;20199;-68
2023/10/20 01:02:45;;;;;;;5.13;4.57;;;6.80;99.90;;;6.74;100.00;98978.88;5080772;28;20208;-69
2023/10/20 01:05:19;;;;;;;5.00;4.40;;;6.80;99.90;;;6.78;100.00;98966.63;5077049;28;20724;-69
2023/10/20 01:07:47;;;;;;;6.57;5.18;;;6.80;99.90;;;6.79;100.00;98962.06;5083801;28;20266;-69
2023/10/20 01:10:16;;;;;;;6.85;4.90;;;6.80;99.90;;;6.79;100.00;98964.75;5078563;28;20606;-68
2023/10/20 01:12:45;;;;;;;5.50;3.58;;;6.80;99.90;;;6.79;100.00;98975.50;5084723;28;20708;-68
2023/10/20 01:15:16;;;;;;;8.30;5.07;;;6.80;99.90;;;6.80;100.00;98974.47;5089223;28;20191;-67
2023/10/20 01:17:44;;;;;;;8.27;4.13;;;6.80;99.90;;;6.81;100.00;98986.88;5085928;28;20188;-68
2023/10/20 01:24:46;;;;;;;8.35;5.25;;;6.80;99.90;;;6.86;100.00;98995.09;5073715;28;20195;-67
2023/10/20 01:27:16;;;;;;;6.40;4.57;;;6.90;99.90;;;6.88;100.00;98983.06;5079033;28;20203;-65
2023/10/20 01:29:44;;;;;;;6.80;5.82;;;6.90;99.90;;;6.87;100.00;98969.84;5072160;28;20200;-66
2023/10/20 01:32:12;;;;;;;5.22;4.00;;;6.80;99.90;;;6.91;100.00;98971.88;5067570;28;20623;-67
2023/10/20 01:34:41;;;;;;;5.45;3.70;;;6.90;99.90;;;6.86;100.00;98976.28;5088669;28;20179;-68
2023/10/20 01:37:11;;;;;;;4.40;3.45;;;6.90;99.90;;;6.91;100.00;98976.41;5068361;28;20251;-67
2023/10/20 01:39:39;;;;;;;3.50;2.10;;;6.90;99.90;;;6.84;100.00;98970.28;5077551;28;20681;-68
2023/10/20 01:42:09;;;;;;;6.82;4.97;;;6.90;99.90;;;6.92;100.00;98967.31;5082393;28;20266;-67
2023/10/20 01:44:37;;;;;;;6.28;3.42;;;6.90;99.90;;;6.86;100.00;98958.28;5075143;28;20267;-67
2023/10/20 01:47:06;;;;;;;4.70;3.05;;;6.90;99.90;;;6.92;100.00;98965.41;5077852;28;20553;-66
2023/10/20 01:49:36;;;;;;;3.58;2.45;;;6.90;99.90;;;6.96;100.00;98963.94;5091198;28;20208;-67
2023/10/20 01:52:07;;;;;;;3.95;3.33;;;6.90;99.90;;;6.91;100.00;98949.53;5069915;28;20228;-67
2023/10/20 01:54:36;;;;;;;6.43;4.90;;;6.90;99.90;;;6.86;100.00;98942.16;5090983;28;20209;-68
2023/10/20 01:57:04;;;;;;;3.58;3.28;;;6.90;99.90;;;6.83;100.00;98936.38;5086187;28;20283;-68
2023/10/20 01:59:33;;;;;;;4.82;2.30;;;6.90;99.90;;;6.87;100.00;98948.34;5073180;28;20188;-69
2023/10/20 02:02:03;;;;;;;4.97;2.65;;;6.90;99.90;;;6.83;100.00;98942.56;5070100;28;20227;-69
2023/10/20 02:04:32;;;;;;;3.70;2.15;;;6.80;99.90;;;6.86;100.00;98944.00;5081901;28;20564;-70
2023/10/20 02:07:01;;;;;;;4.47;2.25;;;6.90;99.90;;;6.82;100.00;98942.81;5088070;28;20262;-67
2023/10/20 02:09:31;;;;;;;3.60;2.50;;;6.80;99.90;;;6.88;100.00;98944.59;5076822;28;20222;-67
2023/10/20 02:11:59;;;;;;;3.65;2.80;;;6.90;99.90;;;6.83;100.00;98944.44;5087219;28;20215;-67
2023/10/20 02:14:27;;;;;;;4.70;2.53;;;6.80;99.90;;;6.87;100.00;98945.66;5071773;28;20564;-67
2023/10/20 02:16:57;;;;;;;3.05;2.55;;;6.90;99.90;;;6.86;100.00;98944.00;5091470;28;20184;-67
2023/10/20 02:19:26;;;;;;;3.38;2.63;;;6.90;99.90;;;6.87;100.00;98942.97;5074533;28;20685;-67
2023/10/20 02:21:55;;;;;;;2.05;1.10;;;6.90;99.90;;;6.83;100.00;98945.28;5080948;28;20211;-68
2023/10/20 02:24:23;;;;;;;4.40;2.40;;;6.80;99.90;;;6.82;100.00;98948.19;5087288;28;20274;-68
2023/10/20 02:26:51;;;;;;;3.42;3.22;;;6.80;99.90;;;6.82;100.00;98937.44;5073434;28;20287;-68
2023/10/20 02:29:20;;;;;;;2.80;2.53;;;6.80;99.90;;;6.83;100.00;98931.00;5075488;28;20200;-66
2023/10/20 02:31:48;;;;;;;7.32;2.90;;;6.80;99.90;;;6.84;100.00;98927.28;5087856;28;20582;-68
2023/10/20 02:34:18;;;;;;;4.22;2.80;;;6.80;99.90;;;6.79;100.00;98927.13;5065624;28;20199;-68
2023/10/20 02:36:49;;;;;;;2.55;1.80;;;6.80;99.90;;;6.84;100.00;98935.34;5084608;28;20200;-68
2023/10/20 02:39:18;;;;;;;4.70;3.35;;;6.80;99.90;;;6.85;100.00;98934.31;5089850;28;20221;-69
2023/10/20 02:41:46;;;;;;;2.65;1.80;;;6.80;99.90;;;6.79;100.00;98927.94;5090344;28;20249;-67
2023/10/20 02:44:18;;;;;;;3.45;1.67;;;6.80;99.90;;;6.77;100.00;98922.00;5087163;28;20252;-67
2023/10/20 02:46:46;;;;;;;3.45;2.90;;;6.80;99.90;;;6.75;100.00;98912.50;5071298;28;20384;-67
2023/10/20 02:49:15;;;;;;;3.38;1.98;;;6.80;99.90;;;6.72;100.00;98910.28;5075484;28;20199;-68
2023/10/20 02:51:45;;;;;;;2.38;2.17;;;6.70;99.90;;;6.74;100.00;98900.94;5065337;28;20281;-68
2023/10/20 02:54:13;;;;;;;5.03;3.30;;;6.70;99.90;;;6.72;100.00;98896.84;5083669;28;20285;-69
2023/10/20 02:56:42;;;;;;;3.22;1.80;;;6.70;99.90;;;6.69;100.00;98897.28;5085862;28;20199;-68
2023/10/20 02:59:12;;;;;;;6.40;2.30;;;6.70;99.90;;;6.67;100.00;98889.44;5074828;28;20727;-66
2023/10/20 03:01:41;;;;;;;5.32;1.50;;;6.70;99.90;;;6.66;100.00;98903.09;5067599;28;20191;-68
2023/10/20 03:04:10;;;;;;;2.80;1.98;;;6.70;99.90;;;6.64;100.00;98895.25;5084086;28;20200;-69
2023/10/20 03:06:38;;;;;;;2.20;1.52;;;6.70;99.90;;;6.62;100.00;98901.91;5090713;28;20661;-67
2023/10/20 03:09:08;;;;;;;5.28;2.38;;;6.70;99.90;;;6.63;100.00;98903.56;5078133;28;20657;-68
2023/10/20 03:11:36;;;;;;;3.97;2.65;;;6.70;99.90;;;6.62;100.00;98885.78;5089220;28;20281;-68
2023/10/20 03:14:05;;;;;;;2.55;1.60;;;6.60;99.90;;;6.64;100.00;98894.44;5072411;28;20195;-69
2023/10/20 03:16:37;;;;;;;6.45;2.10;;;6.60;99.90;;;6.63;100.00;98898.19;5080882;28;20209;-68
2023/10/20 03:19:06;;;;;;;3.22;1.90;;;6.60;99.90;;;6.62;100.00;98891.16;5077131;28;20661;-68
2023/10/20 03:21:34;;;;;;;3.33;2.30;;;6.60;99.90;;;6.64;100.00;98884.50;5081077;28;20180;-68
2023/10/20 03:24:04;;;;;;;3.47;1.58;;;6.70;99.90;;;6.60;100.00;98882.50;5087709;28;20281;-68
2023/10/20 03:26:34;;;;;;;6.70;2.42;;;6.60;99.90;;;6.57;100.00;98882.97;5084677;28;20202;-68
2023/10/20 03:29:04;;;;;;;3.38;1.75;;;6.60;99.90;;;6.55;100.00;98881.31;5087318;28;20199;-67
2023/10/20 03:31:34;;;;;;;6.00;3.22;;;6.60;99.90;;;6.59;100.00;98875.47;5087190;28;20188;-68
2023/10/20 03:34:02;;;;;;;2.60;2.20;;;6.60;99.90;;;6.54;100.00;98868.09;5079661;28;20682;-69
2023/10/20 03:36:30;;;;;;;5.50;3.03;;;6.60;99.90;;;6.55;100.00;98864.38;5091597;28;20195;-67
2023/10/20 03:38:59;;;;;;;4.18;1.65;;;6.60;99.90;;;6.55;100.00;98870.56;5089564;28;20183;-69
2023/10/20 03:41:29;;;;;;;2.65;2.00;;;6.60;99.90;;;6.56;100.00;98876.75;5089628;28;20649;-66
2023/10/20 03:44:00;;;;;;;2.85;1.90;;;6.60;99.90;;;6.48;100.00;98875.22;5086359;28;20200;-67
2023/10/20 03:46:30;;;;;;;7.25;3.72;;;6.50;99.90;;;6.44;100.00;98863.25;5082906;28;20225;-68
2023/10/20 03:48:58;;;;;;;6.00;3.88;;;6.50;99.90;;;6.46;100.00;98861.16;5091965;28;20253;-67
2023/10/20 03:51:27;;;;;;;4.85;2.65;;;6.50;99.90;;;6.46;100.00;98860.34;5092998;28;20199;-68
2023/10/20 03:53:55;;;;;;;3.20;2.78;;;6.50;99.90;;;6.41;100.00;98871.78;5093116;28;20595;-68
2023/10/20 03:56:24;;;;;;;5.85;1.88;;;6.40;99.90;;;6.41;100.00;98847.59;5090618;28;20579;-68
2023/10/20 03:58:52;;;;;;;3.10;1.80;;;6.40;99.90;;;6.43;100.00;98844.69;5091026;28;20266;-69
2023/10/20 04:01:22;;;;;;;3.55;1.77;;;6.40;99.90;;;6.40;100.00;98840.56;5086629;28;20195;-69
2023/10/20 04:03:50;;;;;;;3.45;2.10;;;6.40;99.90;;;6.42;100.00;98843.03;5080210;28;20242;-68
2023/10/20 04:06:20;;;;;;;4.88;1.20;;;6.40;99.90;;;6.38;100.00;98837.31;5088243;28;20195;-67
2023/10/20 04:08:49;;;;;;;1.92;1.33;;;6.40;99.90;;;6.41;100.00;98828.78;5082094;28;20256;-68
2023/10/20 04:11:18;;;;;;;2.45;2.08;;;6.40;99.90;;;6.37;100.00;98819.53;5085157;28;20290;-67
2023/10/20 04:13:49;;;;;;;2.85;1.90;;;6.40;99.90;;;6.41;100.00;98826.09;5085666;28;20227;-68
2023/10/20 04:16:18;;;;;;;3.33;2.55;;;6.40;99.90;;;6.39;100.00;98825.50;5083364;28;20197;-68
2023/10/20 04:18:49;;;;;;;3.80;2.53;;;6.40;99.90;;;6.41;100.00;98812.66;5087096;28;20202;-68
2023/10/20 04:21:17;;;;;;;3.00;1.90;;;6.40;99.90;;;6.34;100.00;98819.97;5077772;28;20192;-67
2023/10/20 04:23:46;;;;;;;4.00;2.75;;;6.40;99.90;;;6.38;100.00;98820.38;5084733;28;20263;-67
2023/10/20 04:26:20;;;;;;;3.55;2.30;;;6.40;99.90;;;6.36;100.00;98825.13;5081684;28;20196;-67
2023/10/20 04:29:03;;;;;;;3.42;2.63;;;6.40;99.90;;;6.35;100.00;98826.16;5086706;28;20660;-69
2023/10/20 04:42:56;;;;;;;3.65;2.38;;;6.40;99.90;;;6.30;100.00;98808.03;5083613;28;20721;-68
2023/10/20 04:51:22;;;;;;;3.67;1.95;;;6.30;99.90;;;6.32;100.00;98810.50;5050851;28;20299;-67
2023/10/20 04:53:52;;;;;;;3.08;2.05;;;6.30;99.90;;;6.31;100.00;98801.63;5090823;28;20764;-66
2023/10/20 04:56:53;;;;;;;2.08;1.88;;;6.30;99.90;;;6.29;100.00;98797.53;5085583;28;20278;-68
2023/10/20 04:59:23;;;;;;;2.65;2.35;;;6.30;99.90;;;6.32;100.00;98808.66;5089029;28;20191;-65
2023/10/20 05:01:58;;;;;;;5.22;3.33;;;6.30;99.90;;;6.33;100.00;98812.97;5087664;28;20211;-68
2023/10/20 05:04:36;;;;;;;1.80;1.40;;;6.30;99.90;;;6.32;100.00;98811.34;5090933;28;20211;-67
2023/10/20 05:07:08;;;;;;;4.47;3.10;;;6.30;99.90;;;6.28;100.00;98809.31;5084578;28;20719;-67
2023/10/20 05:09:40;;;;;;;2.45;1.50;;;6.30;99.90;;;6.26;100.00;98804.16;5086898;28;20282;-66
2023/10/20 05:12:09;;;;;;;6.10;3.63;;;6.30;99.90;;;6.27;100.00;98803.13;5083962;28;20619;-69
2023/10/20 05:14:37;;;;;;;1.88;1.77;;;6.30;99.90;;;6.29;100.00;98806.44;5084802;28;20215;-67
2023/10/20 05:17:10;;;;;;;3.20;2.20;;;6.30;99.90;;;6.33;100.00;98812.16;5083460;28;20203;-66
2023/10/20 05:19:39;;;;;;;4.82;2.50;;;6.30;99.90;;;6.33;100.00;98806.78;5088430;28;20206;-66
2023/10/20 05:22:09;;;;;;;2.25;1.58;;;6.30;99.90;;;6.30;100.00;98818.78;5084455;28;20212;-66
2023/10/20 05:24:37;;;;;;;2.95;2.75;;;6.30;99.90;;;6.33;100.00;98822.91;5088669;28;20195;-66
2023/10/20 05:27:06;;;;;;;3.83;3.10;;;6.30;99.90;;;6.31;100.00;98823.13;5090846;28;20222;-67
2023/10/20 05:29:34;;;;;;;3.28;2.78;;;6.30;99.90;;;6.30;100.00;98818.78;5090830;28;20223;-67
2023/10/20 05:32:06;;;;;;;1.92;1.75;;;6.30;99.90;;;6.25;100.00;98832.06;5092967;28;20215;-68
2023/10/20 05:34:35;;;;;;;6.32;2.35;;;6.20;99.90;;;6.21;100.00;98820.13;5088757;28;20204;-67
2023/10/20 05:37:03;;;;;;;4.35;3.10;;;6.20;99.90;;;6.22;100.00;98824.47;5093201;28;20282;-68
2023/10/20 05:39:33;;;;;;;2.67;1.88;;;6.20;99.90;;;6.23;100.00;98828.81;5088698;28;20188;-67
2023/10/20 05:42:04;;;;;;;3.13;1.55;;;6.20;99.90;;;6.21;100.00;98824.69;5088592;28;20230;-67
2023/10/20 05:44:32;;;;;;;4.65;3.25;;;6.20;99.90;;;6.26;100.00;98832.88;5093661;28;20187;-68
2023/10/20 05:47:01;;;;;;;5.47;2.13;;;6.20;99.90;;;6.25;100.00;98820.50;5086558;28;20742;-67
2023/10/20 05:49:32;;;;;;;4.78;1.83;;;6.20;99.90;;;6.30;100.00;98805.34;5090053;28;20202;-65
2023/10/20 05:52:00;;;;;;;3.53;2.72;;;6.20;99.90;;;6.34;100.00;98798.47;5085788;28;20245;-67
2023/10/20 05:54:30;;;;;;;3.88;2.63;;;6.20;99.90;;;6.30;100.00;98804.53;5093838;28;20286;-69
2023/10/20 05:57:00;;;;;;;3.17;2.25;;;6.30;99.90;;;6.23;100.00;98801.94;5093027;28;20948;-67
2023/10/20 05:59:28;;;;;;;5.80;3.22;;;6.20;99.90;;;6.21;100.00;98793.28;5084504;28;20188;-68
2023/10/20 06:01:58;;;;;;;3.75;2.10;;;6.20;99.90;;;6.15;100.00;98788.00;5089547;28;20238;-69
2023/10/20 06:04:27;;;;;;;3.58;3.00;;;6.20;99.90;;;6.13;100.00;98790.91;5085698;28;20190;-68
2023/10/20 06:06:56;;;;;;;3.80;3.28;;;6.10;99.90;;;6.16;100.00;98795.81;5093584;28;20270;-68
2023/10/20 06:09:25;;;;;;;3.20;2.60;;;6.10;99.90;;;6.17;100.00;98785.91;5085690;28;20202;-68
2023/10/20 06:11:53;;;;;;;4.05;2.80;;;6.10;99.90;;;6.13;100.00;98780.16;5092394;28;20223;-67
2023/10/20 06:14:23;;;;;;;2.53;2.08;;;6.10;99.90;;;6.15;100.00;98780.75;5083775;28;20443;-67
2023/10/20 06:16:52;;;;;;;4.28;2.58;;;6.10;99.90;;;6.12;100.00;98773.16;5094576;28;20574;-67
2023/10/20 06:19:21;;;;;;;2.65;2.45;;;6.10;99.90;;;6.06;100.00;98766.00;5090426;28;20619;-66
2023/10/20 06:21:50;;;;;;;5.05;3.67;;;6.10;99.90;;;6.05;100.00;98773.22;5090064;28;20272;-67
2023/10/20 06:24:18;;;;;;;6.95;3.00;;;6.10;99.90;;;6.11;100.00;98774.19;5093187;28;20263;-68
2023/10/20 06:26:47;;;;;;;2.75;2.28;;;6.10;99.90;;;6.06;100.00;98787.47;5077466;28;20199;-67
2023/10/20 06:29:26;;;;;;;4.47;2.88;;;6.10;99.90;;;6.00;100.00;98791.84;5087938;28;20187;-68
2023/10/20 06:32:09;;;;;;;3.90;2.92;;;6.00;99.90;;;6.00;100.00;98791.84;5089089;28;20706;-68
2023/10/20 06:34:40;;;;;;;6.10;3.45;;;6.00;99.90;;;6.03;100.00;98791.44;5089406;28;20195;-68
2023/10/20 06:37:12;;;;;;;7.25;4.05;;;6.00;99.90;;;6.01;100.00;98792.69;5085269;28;20188;-67
2023/10/20 06:39:41;;;;;;;1.95;1.75;;;6.00;99.90;;;6.01;100.00;98771.22;5091569;28;20229;-69
2023/10/20 06:42:10;;;;;;;3.28;3.08;;;6.00;99.90;;;5.93;100.00;98775.03;5081838;28;20211;-68
2023/10/20 06:44:38;;;;;;;4.93;2.95;;;6.00;99.90;;;5.94;100.00;98763.25;5089058;28;20184;-68
2023/10/20 06:47:08;;;;;;;8.50;6.00;;;6.00;99.90;;;5.96;100.00;98768.38;5088666;28;20233;-70
2023/10/20 06:49:36;;;;;;;2.03;1.83;;;6.00;99.90;;;5.94;100.00;98740.94;5090642;28;20207;-69
2023/10/20 06:52:05;;;;;;;3.33;2.42;;;5.90;99.90;;;5.92;100.00;98749.22;5085491;28;20219;-69
2023/10/20 06:54:34;;;;;;;4.53;2.70;;;5.90;99.90;;;5.92;100.00;98732.28;5086552;28;20204;-67
2023/10/20 06:57:02;;;;;;;3.03;2.30;;;5.90;99.90;;;5.99;100.00;98730.34;5084402;28;20683;-66
2023/10/20 06:59:31;;;;;;;4.70;3.65;;;5.90;99.90;;;5.99;100.00;98730.34;5087572;28;20661;-69
2023/10/20 07:02:01;;;;;;;5.43;3.80;;;6.00;99.90;;;6.02;100.00;98733.41;5086077;28;20253;-68
2023/10/20 07:04:31;;;;;;;3.78;3.38;;;6.00;99.90;;;5.91;100.00;98733.31;5088361;28;20191;-69
2023/10/20 07:07:01;;;;;;;3.88;2.55;;;5.90;99.90;;;5.91;100.00;98727.97;5088365;28;20196;-69
2023/10/20 07:09:30;;;;;;;4.18;2.38;;;5.90;99.90;;;5.91;100.00;98731.47;5089148;28;20575;-67
2023/10/20 07:12:01;;;;;;;4.50;2.92;;;5.90;99.90;;;5.88;100.00;98723.06;5089463;28;20249;-66
2023/10/20 07:14:29;;;;;;;5.15;2.58;;;5.90;99.90;;;5.83;100.00;98729.06;5091709;28;20195;-69
2023/10/20 07:17:01;;;;;;;5.25;3.47;;;5.90;99.90;;;5.75;100.00;98721.31;5087095;28;20184;-68
2023/10/20 07:19:31;;;;;;;4.55;2.47;;;5.80;99.90;;;5.78;100.00;98728.91;5073599;28;20653;-70
2023/10/20 07:22:00;;;;;;;4.18;3.78;;;5.80;99.90;;;5.83;100.00;98712.13;5086886;28;20212;-68
2023/10/20 07:24:28;;;;;;;2.08;1.73;;;5.80;99.90;;;5.81;100.00;98706.19;5089755;28;20258;-68
2023/10/20 07:26:57;;;;;;;3.15;2.85;;;5.80;99.90;;;5.75;100.00;98696.34;5074431;28;20249;-70
2023/10/20 07:29:26;;;;;;;5.15;2.30;;;5.80;99.90;;;5.79;100.00;98681.44;5084041;28;20212;-67
2023/10/20 07:31:54;;;;;;;2.30;1.83;;;5.80;99.90;;;5.74;100.00;98687.47;5084918;28;20627;-67
2023/10/20 07:34:23;;;;;;;5.20;2.75;;;5.80;99.90;;;5.71;100.00;98698.66;5090411;28;20211;-68
2023/10/20 07:36:53;;;;;;;2.05;1.95;;;5.70;99.90;;;5.71;100.00;98720.13;5087534;28;20191;-66
2023/10/20 07:39:22;;;;;;;3.65;3.08;;;5.70;99.90;;;5.69;100.00;98731.06;5091578;28;20737;-66
2023/10/20 07:41:51;;;;;;;6.68;3.08;;;5.70;99.90;;;5.72;100.00;98716.38;5091295;28;20204;-66
2023/10/20 07:44:19;;;;;;;2.80;1.83;;;5.70;99.90;;;5.68;100.00;98718.69;5087959;28;20548;-68
2023/10/20 07:46:47;;;;;;;6.93;3.42;;;5.70;99.90;;;5.63;100.00;98715.03;5085734;28;20187;-67
2023/10/20 07:49:16;;;;;;;3.33;2.80;;;5.70;99.90;;;5.62;100.00;98698.13;5082406;28;20198;-69
2023/10/20 07:51:44;;;;;;;4.85;3.33;;;5.70;99.90;;;5.60;100.00;98689.50;5090327;28;20628;-68
2023/10/20 07:54:14;;;;;;;2.05;1.63;;;5.60;99.90;;;5.58;100.00;98666.59;5090147;28;20603;-68
2023/10/20 07:56:43;;;;;;;3.42;2.40;;;5.60;99.90;;;5.57;100.00;98681.03;5083911;28;20757;-69
2023/10/20 07:59:11;;;;;;;2.08;1.60;;;5.60;99.90;;;5.60;100.00;98678.75;5090634;28;20195;-66
2023/10/20 08:01:39;;;;;;;3.70;3.25;;;5.60;99.90;;;5.64;100.00;98665.72;5082599;28;20195;-67
2023/10/20 08:04:08;;;;;;;3.08;2.17;;;5.70;99.90;;;5.71;100.00;98658.41;5082202;28;20203;-67
2023/10/20 08:06:37;;;;;;;3.20;1.60;;;5.70;99.90;;;5.70;100.00;98662.13;5089140;28;20266;-69
2023/10/20 08:09:07;;;;;;;2.45;1.95;;;5.70;99.90;;;5.69;100.00;98657.81;5084507;28;20195;-68
2023/10/20 08:11:37;;;;;;;3.35;2.58;;;5.70;99.90;;;5.72;100.00;98648.47;5084610;28;20190;-69
2023/10/20 08:14:06;;;;;;;3.35;2.40;;;5.70;99.90;;;5.61;100.00;98648.22;5087120;28;20564;-69
2023/10/20 08:16:34;;;;;;;3.45;2.53;;;5.60;99.90;;;5.65;100.00;98648.56;5086254;28;20199;-68
2023/10/20 08:19:03;;;;;;;5.20;2.00;;;5.60;99.90;;;5.63;100.00;98635.38;5090088;28;20194;-68
2023/10/20 08:21:31;;;;;;;2.88;2.10;;;5.60;99.90;;;5.60;100.00;98646.56;5093317;28;20239;-67
2023/10/20 08:23:59;;;;;;;2.22;1.77;;;5.60;99.90;;;5.63;100.00;98651.47;5086075;28;20662;-67
2023/10/20 08:26:27;;;;;;;5.45;2.45;;;5.60;99.90;;;5.58;100.00;98640.59;5074930;28;20231;-69
2023/10/20 08:28:57;;;;;;;2.78;2.50;;;5.60;99.90;;;5.62;100.00;98654.38;5081940;28;20195;-68
2023/10/20 08:31:27;;;;;;;4.38;1.50;;;5.60;99.90;;;5.61;100.00;98650.91;5084845;28;20270;-69
2023/10/20 08:33:57;;;;;;;2.67;1.67;;;5.60;99.90;;;5.57;100.00;98655.03;5092687;28;20579;-67
2023/10/20 08:36:26;;;;;;;1.92;1.55;;;5.60;99.90;;;5.62;100.00;98676.66;5087649;28;20743;-67
2023/10/20 08:38:54;;;;;;;2.10;1.90;;;5.60;99.90;;;5.67;100.00;98663.38;5088689;28;20187;-67
2023/10/20 08:41:24;;;;;;;2.25;1.88;;;5.60;99.90;;;5.69;100.00;98682.78;5085021;28;20187;-68
2023/10/20 08:43:53;;;;;;;4.78;3.03;;;5.70;99.90;;;5.67;100.00;98684.84;5085451;28;20720;-67
2023/10/20 08:46:23;;;;;;;3.67;1.50;;;5.70;99.90;;;5.69;100.00;98681.97;5090444;28;20266;-69
2023/10/20 08:48:53;;;;;;;2.28;1.77;;;5.70;99.90;;;5.74;100.00;98675.91;5090994;28;20191;-67
2023/10/20 08:51:24;;;;;;;2.67;2.22;;;5.70;99.90;;;5.71;100.00;98673.69;5089515;28;20188;-67
2023/10/20 08:53:52;;;;;;;3.72;2.50;;;5.70;99.90;;;5.71;100.00;98677.19;5096292;28;20215;-68
2023/10/20 08:56:21;;;;;;;2.80;2.00;;;5.70;99.90;;;5.69;100.00;98661.31;5091559;28;20219;-67
2023/10/20 08:58:51;;;;;;;2.55;1.95;;;5.70;99.90;;;5.73;100.00;98661.69;5088603;28;20188;-67
2023/10/20 09:01:19;;;;;;;2.42;1.92;;;5.70;99.90;;;5.73;100.00;98644.75;5090922;28;20187;-68
2023/10/20 09:03:51;;;;;;;1.52;1.42;;;5.70;99.90;;;5.76;100.00;98655.06;5088431;28;20223;-68
2023/10/20 09:06:24;;;;;;;2.75;1.50;;;5.80;99.90;;;5.72;100.00;98659.22;5081311;28;20278;-67
2023/10/20 09:08:53;;;;;;;2.15;1.88;;;5.70;99.90;;;5.73;100.00;98661.69;5090425;28;20183;-67
2023/10/20 09:11:25;;;;;;;3.83;2.88;;;5.70;99.90;;;5.65;100.00;98664.66;5091265;28;20183;-69
2023/10/20 09:13:57;;;;;;;6.90;2.38;;;5.70;99.90;;;5.72;100.00;98657.34;5072725;28;20309;-68
2023/10/20 09:16:27;;;;;;;3.30;2.28;;;5.70;99.90;;;5.68;100.00;98658.84;5093389;28;20859;-68
2023/10/20 09:18:57;;;;;;;2.50;1.55;;;5.70;99.90;;;5.64;100.00;98652.28;5089125;28;20262;-69
2023/10/20 09:21:28;;;;;;;4.03;3.05;;;5.70;99.90;;;5.62;100.00;98643.63;5084303;28;20244;-66
2023/10/20 09:23:59;;;;;;;4.93;3.00;;;5.70;99.90;;;5.59;100.00;98650.28;5091810;28;20260;-65
2023/10/20 09:26:32;;;;;;;2.08;1.65;;;5.70;99.90;;;5.54;100.00;98639.41;5093029;28;20641;-67
2023/10/20 09:29:01;;;;;;;4.93;4.53;;;5.60;99.90;;;5.52;100.00;98641.47;5099377;28;20245;-67
2023/10/20 09:31:29;;;;;;;1.70;1.33;;;5.60;99.90;;;5.54;100.00;98636.72;5093566;28;20601;-67
2023/10/20 09:34:00;;;;;;;1.88;1.67;;;5.60;99.90;;;5.54;100.00;98635.91;5071263;28;20191;-70
2023/10/20 09:36:32;;;;;;;3.03;1.90;;;5.60;99.90;;;5.57;100.00;98636.25;5087098;28;20203;-69
2023/10/20 09:39:03;;;;;;;5.40;2.40;;;5.60;99.90;;;5.60;100.00;98635.00;5090473;28;20199;-66
2023/10/20 09:41:31;;;;;;;2.10;1.90;;;5.60;99.90;;;5.57;100.00;98622.84;5086615;28;20276;-68
2023/10/20 09:44:06;;;;;;;2.63;1.60;;;5.60;99.90;;;5.60;100.00;98622.41;5095549;28;20672;-67
2023/10/20 09:46:53;;;;;;;5.05;3.28;;;5.60;99.90;;;5.58;100.00;98616.44;5087203;28;20207;-69
2023/10/20 09:49:26;;;;;;;3.00;2.38;;;5.60;99.90;;;5.57;100.00;98614.81;5091594;28;20214;-66
2023/10/20 09:51:57;;;;;;;1.95;1.75;;;5.60;99.90;;;5.55;100.00;98611.53;5088221;28;20203;-68
2023/10/20 09:54:30;;;;;;;2.35;1.67;;;5.60;99.90;;;5.54;100.00;98607.22;5077221;28;20192;-68
2023/10/20 09:56:59;;;;;;;2.63;1.55;;;5.60;99.90;;;5.54;100.00;98609.06;5089056;28;20260;-68
2023/10/20 09:59:30;;;;;;;11.95;3.50;;;5.60;99.90;;;5.50;100.00;98592.63;5091099;28;20192;-68
2023/10/20 10:02:00;;;;;;;3.25;2.10;;;5.60;99.90;;;5.51;100.00;98580.84;5088288;28;20611;-67
2023/10/20 10:04:36;;;;;;;3.28;2.13;;;5.50;99.90;;;5.48;100.00;98573.25;5077620;28;20191;-68
2023/10/20 10:07:08;;;;;;;3.33;2.10;;;5.50;99.90;;;5.51;100.00;98586.22;5097132;28;20210;-68
2023/10/20 10:09:38;;;;;;;2.80;2.25;;;5.50;99.90;;;5.49;100.00;98585.63;5095732;28;20205;-69
2023/10/20 10:12:14;;;;;;;5.05;2.25;;;5.50;99.90;;;5.43;100.00;98586.50;5094707;28;20220;-68
2023/10/20 10:14:43;;;;;;;1.88;1.75;;;5.50;99.90;;;5.46;100.00;98590.63;5092486;28;20611;-69
2023/10/20 10:17:12;;;;;;;2.42;1.55;;;5.50;99.90;;;5.44;100.00;98592.69;5091485;28;20218;-66
2023/10/20 10:19:55;;;;;;;3.08;2.00;;;5.50;99.90;;;5.45;100.00;98583.59;5100081;28;20239;-69
2023/10/20 10:22:27;;;;;;;4.13;2.25;;;5.50;99.90;;;5.44;100.00;98581.97;5099955;28;20272;-69
2023/10/20 10:24:57;;;;;;;3.13;2.83;;;5.50;99.90;;;5.43;100.00;98572.28;5094179;28;20207;-68
2023/10/20 10:27:28;;;;;;;2.90;2.10;;;5.50;99.90;;;5.42;100.00;98568.78;5094584;28;20681;-69
2023/10/20 10:30:00;;;;;;;1.80;1.25;;;5.40;99.90;;;5.42;100.00;98573.34;5086824;28;20187;-68
2023/10/20 10:32:32;;;;;;;2.00;0.93;;;5.50;99.90;;;5.42;100.00;98563.41;5090831;28;20694;-68
2023/10/20 10:35:04;;;;;;;1.80;1.50;;;5.50;99.90;;;5.44;100.00;98577.41;5078943;28;20679;-67
2023/10/20 10:37:34;;;;;;;2.95;1.73;;;5.50;99.90;;;5.47;100.00;98582.31;5084922;28;20191;-69
2023/10/20 10:40:09;;;;;;;2.47;1.92;;;5.50;99.90;;;5.47;100.00;98582.31;5089722;28;20219;-68
2023/10/20 10:42:40;;;;;;;2.13;1.92;;;5.50;99.90;;;5.49;100.00;98580.25;5095501;28;20227;-69
2023/10/20 10:45:21;;;;;;;3.45;1.98;;;5.50;99.90;;;5.49;100.00;98579.44;5090169;28;20244;-67
2023/10/20 10:47:51;;;;;;;2.90;2.08;;;5.60;99.90;;;5.55;100.00;98563.25;5089771;28;20581;-68
2023/10/20 10:50:21;;;;;;;4.05;1.98;;;5.60;99.90;;;5.48;100.00;98570.56;5087557;28;20606;-67
2023/10/20 10:52:50;;;;;;;2.90;1.92;;;5.50;99.90;;;5.46;100.00;98574.53;5091503;28;20211;-69
2023/10/20 10:55:21;;;;;;;2.58;1.60;;;5.50;99.90;;;5.47;100.00;98574.28;5088525;28;20195;-69
2023/10/20 10:57:50;;;;;;;2.72;1.33;;;5.50;99.90;;;5.53;100.00;98575.25;5088370;28;20187;-68